createdAt,value
2018-05-15T00:00:44.728Z,14.67
2018-05-15T00:05:51.858Z,15.00
2018-05-15T00:08:24.108Z,12.33
2018-05-15T00:10:55.995Z,13.33
2018-05-15T00:13:27.517Z,13.00
2018-05-15T00:15:58.600Z,12.00
2018-05-15T00:18:30.147Z,13.33
2018-05-15T00:21:00.755Z,14.33
2018-05-15T00:23:32.582Z,12.67
2018-05-15T00:26:04.841Z,15.67
2018-05-15T00:28:37.178Z,12.00
2018-05-15T00:31:08.583Z,14.33
2018-05-15T00:33:40.823Z,15.67
2018-05-15T00:36:13.639Z,16.33
2018-05-15T00:38:44.987Z,15.00
2018-05-15T00:41:16.461Z,16.33
2018-05-15T00:43:48.121Z,14.00
2018-05-15T00:46:18.647Z,15.00
2018-05-15T00:48:49.977Z,12.00
2018-05-15T00:51:21.672Z,14.00
2018-05-15T00:53:53.042Z,12.33
2018-05-15T00:56:25.242Z,14.00
2018-05-15T00:58:57.573Z,14.00
2018-05-15T01:01:28.080Z,15.00
2018-05-15T01:03:59.721Z,14.33
2018-05-15T01:06:31.114Z,12.67
2018-05-15T01:09:03.538Z,12.67
2018-05-15T01:11:36.977Z,14.00
2018-05-15T01:14:09.280Z,15.67
2018-05-15T01:16:41.370Z,14.00
2018-05-15T01:19:11.970Z,16.33
2018-05-15T01:21:43.357Z,13.33
2018-05-15T01:24:16.906Z,14.00
2018-05-15T01:26:49.151Z,13.67
2018-05-15T01:29:20.582Z,14.00
2018-05-15T01:31:52.457Z,15.33
2018-05-15T01:34:24.855Z,16.33
2018-05-15T01:36:56.312Z,16.33
2018-05-15T01:39:31.264Z,17.00
2018-05-15T01:42:02.778Z,17.00
2018-05-15T01:44:34.829Z,12.67
2018-05-15T01:47:07.481Z,15.33
2018-05-15T01:49:37.925Z,14.67
2018-05-15T01:52:10.691Z,17.00
2018-05-15T01:54:42.086Z,15.33
2018-05-15T01:57:13.877Z,14.33
2018-05-15T01:59:46.540Z,15.00
2018-05-15T02:02:18.000Z,14.00
2018-05-15T02:04:49.417Z,13.67
2018-05-15T02:07:21.130Z,14.33
2018-05-15T02:09:53.431Z,14.33
2018-05-15T02:12:25.836Z,17.00
2018-05-15T02:14:57.307Z,14.00
2018-05-15T02:17:28.671Z,14.00
2018-05-15T02:20:00.551Z,13.33
2018-05-15T02:22:32.123Z,17.00
2018-05-15T02:25:03.538Z,17.00
2018-05-15T02:27:36.307Z,14.67
2018-05-15T02:30:08.614Z,18.33
2018-05-15T02:32:40.002Z,16.00
2018-05-15T02:35:12.632Z,15.67
2018-05-15T02:37:44.973Z,17.00
2018-05-15T02:40:16.643Z,17.00
2018-05-15T02:42:48.270Z,16.00
2018-05-15T02:45:19.127Z,16.00
2018-05-15T02:47:50.961Z,14.00
2018-05-15T02:50:22.393Z,14.00
2018-05-15T02:52:53.748Z,16.00
2018-05-15T02:55:25.748Z,15.33
2018-05-15T02:57:57.543Z,14.00
2018-05-15T03:00:30.147Z,14.00
2018-05-15T03:03:00.769Z,17.33
2018-05-15T03:05:32.490Z,16.00
2018-05-15T03:08:03.059Z,16.00
2018-05-15T03:10:36.078Z,18.33
2018-05-15T03:13:07.491Z,16.00
2018-05-15T03:15:37.983Z,16.00
2018-05-15T03:18:08.509Z,17.67
2018-05-15T03:20:40.814Z,18.00
2018-05-15T03:23:13.127Z,16.00
2018-05-15T03:25:45.882Z,13.67
2018-05-15T03:28:16.519Z,16.00
2018-05-15T03:30:48.413Z,14.67
2018-05-15T03:33:20.818Z,17.00
2018-05-15T03:35:53.201Z,18.00
2018-05-15T03:38:25.584Z,16.00
2018-05-15T03:40:57.540Z,15.67
2018-05-15T03:43:29.844Z,17.00
2018-05-15T03:46:02.211Z,17.00
2018-05-15T03:48:32.617Z,16.00
2018-05-15T03:51:04.419Z,17.00
2018-05-15T03:53:35.765Z,13.33
2018-05-15T03:56:06.278Z,17.33
2018-05-15T03:58:38.211Z,16.00
2018-05-15T04:01:19.630Z,17.67
2018-05-15T04:05:02.817Z,16.67
2018-05-15T04:08:09.385Z,17.33
2018-05-15T04:10:42.100Z,19.00
2018-05-15T04:13:13.546Z,16.00
2018-05-15T04:15:46.016Z,16.00
2018-05-15T04:18:16.460Z,14.67
2018-05-15T04:20:47.872Z,16.00
2018-05-15T04:23:20.454Z,19.00
2018-05-15T04:25:50.961Z,16.67
2018-05-15T04:28:21.722Z,15.00
2018-05-15T04:30:54.614Z,16.33
2018-05-15T04:33:26.890Z,19.33
2018-05-15T04:36:00.097Z,19.00
2018-05-15T04:38:31.726Z,14.33
2018-05-15T04:41:04.038Z,14.00
2018-05-15T04:43:34.736Z,17.33
2018-05-15T04:46:05.310Z,16.00
2018-05-15T04:48:38.365Z,14.67
2018-05-15T04:51:10.201Z,17.00
2018-05-15T04:53:42.598Z,21.00
2018-05-15T04:56:13.125Z,18.67
2018-05-15T04:58:43.626Z,18.00
2018-05-15T05:01:15.962Z,19.00
2018-05-15T05:03:50.615Z,18.33
2018-05-15T05:06:23.111Z,18.00
2018-05-15T05:08:55.457Z,18.00
2018-05-15T05:11:27.153Z,20.33
2018-05-15T05:13:57.650Z,18.67
2018-05-15T05:16:28.993Z,17.33
2018-05-15T05:18:59.728Z,17.00
2018-05-15T05:21:31.134Z,14.00
2018-05-15T05:24:01.603Z,15.67
2018-05-15T05:26:32.391Z,17.00
2018-05-15T05:29:05.486Z,17.67
2018-05-15T05:31:36.382Z,17.33
2018-05-15T05:34:09.534Z,18.00
2018-05-15T05:36:40.007Z,19.00
2018-05-15T05:39:10.546Z,17.33
2018-05-15T05:41:41.022Z,18.33
2018-05-15T05:44:13.648Z,16.67
2018-05-15T05:46:44.199Z,18.67
2018-05-15T05:49:14.665Z,16.33
2018-05-15T05:51:45.502Z,16.33
2018-05-15T05:54:17.794Z,17.33
2018-05-15T05:56:48.402Z,19.00
2018-05-15T05:59:20.716Z,17.67
2018-05-15T06:01:53.126Z,18.00
2018-05-15T06:04:24.027Z,17.67
2018-05-15T06:06:57.069Z,20.33
2018-05-15T06:09:27.590Z,16.67
2018-05-15T06:11:59.886Z,18.00
2018-05-15T06:14:30.622Z,16.00
2018-05-15T06:17:03.118Z,18.00
2018-05-15T06:19:33.499Z,18.33
2018-05-15T06:22:04.818Z,15.33
2018-05-15T06:24:36.706Z,17.67
2018-05-15T06:27:08.040Z,18.67
2018-05-15T06:29:38.566Z,17.67
2018-05-15T06:32:09.038Z,17.67
2018-05-15T06:34:39.523Z,17.33
2018-05-15T06:37:10.113Z,18.67
2018-05-15T06:39:40.650Z,20.00
2018-05-15T06:42:11.144Z,17.00
2018-05-15T06:44:43.543Z,17.00
2018-05-15T06:47:14.237Z,17.00
2018-05-15T06:49:44.778Z,18.67
2018-05-15T06:52:17.155Z,17.67
2018-05-15T06:54:47.862Z,19.67
2018-05-15T06:57:19.883Z,16.00
2018-05-15T06:59:50.870Z,20.33
2018-05-15T07:02:21.410Z,19.67
2018-05-15T07:04:52.071Z,17.00
2018-05-15T07:07:22.677Z,17.00
2018-05-15T07:09:54.152Z,17.00
2018-05-15T07:12:24.647Z,17.00
2018-05-15T07:14:57.401Z,16.00
2018-05-15T07:17:29.794Z,18.67
2018-05-15T07:20:02.105Z,17.33
2018-05-15T07:22:32.795Z,18.00
2018-05-15T07:25:03.270Z,18.00
2018-05-15T07:27:35.686Z,17.33
2018-05-15T07:30:07.135Z,18.00
2018-05-15T07:32:37.669Z,17.33
2018-05-15T07:35:09.089Z,18.00
2018-05-15T07:37:39.588Z,17.33
2018-05-15T07:40:10.931Z,18.67
2018-05-15T07:42:42.397Z,19.00
2018-05-15T07:45:14.521Z,19.00
2018-05-15T07:47:45.022Z,21.00
2018-05-15T07:50:15.491Z,20.00
2018-05-15T07:52:46.051Z,19.33
2018-05-15T07:55:17.055Z,19.33
2018-05-15T07:57:47.591Z,21.67
2018-05-15T08:00:18.061Z,17.67
2018-05-15T08:02:48.879Z,17.00
2018-05-15T08:05:19.640Z,16.33
2018-05-15T08:07:50.187Z,20.00
2018-05-15T08:10:22.445Z,16.00
2018-05-15T08:12:53.221Z,16.33
2018-05-15T08:15:23.818Z,19.00
2018-05-15T08:17:54.809Z,19.33
2018-05-15T08:20:27.644Z,17.00
2018-05-15T08:22:58.627Z,18.00
2018-05-15T08:25:31.072Z,20.00
2018-05-15T08:28:01.829Z,18.67
2018-05-15T08:30:33.590Z,15.33
2018-05-15T08:33:05.738Z,20.00
2018-05-15T08:35:36.737Z,17.67
2018-05-15T08:38:08.556Z,19.00
2018-05-15T08:40:39.170Z,20.00
2018-05-15T08:43:09.716Z,19.67
2018-05-15T08:45:40.060Z,19.00
2018-05-15T08:48:11.067Z,18.00
2018-05-15T08:50:41.652Z,19.00
2018-05-15T08:53:12.167Z,20.00
2018-05-15T08:55:43.166Z,17.67
2018-05-15T08:58:13.645Z,19.00
2018-05-15T09:00:44.202Z,17.67
2018-05-15T09:03:15.182Z,15.67
2018-05-15T09:05:46.468Z,17.67
2018-05-15T09:08:16.962Z,17.00
2018-05-15T09:10:49.293Z,15.00
2018-05-15T09:13:20.775Z,16.67
2018-05-15T09:15:55.941Z,17.00
2018-05-15T09:18:27.258Z,20.00
2018-05-15T09:20:59.579Z,18.67
2018-05-15T09:23:30.158Z,16.67
2018-05-15T09:26:08.688Z,19.00
2018-05-15T09:28:41.506Z,16.00
2018-05-15T09:31:12.443Z,17.67
2018-05-15T09:33:56.923Z,17.00
2018-05-15T09:36:28.711Z,18.67
2018-05-15T09:38:59.330Z,17.00
2018-05-15T09:41:31.689Z,17.67
2018-05-15T09:44:02.808Z,17.67
2018-05-15T09:46:33.325Z,15.67
2018-05-15T09:49:03.790Z,17.67
2018-05-15T09:51:36.135Z,16.00
2018-05-15T09:54:07.276Z,20.33
2018-05-15T09:56:40.721Z,17.33
2018-05-15T09:59:16.925Z,15.67
2018-05-15T10:01:51.759Z,18.00
2018-05-15T10:04:25.384Z,19.33
2018-05-15T10:07:03.170Z,16.67
2018-05-15T10:09:36.472Z,15.00
2018-05-15T10:12:09.449Z,14.67
2018-05-15T10:14:40.889Z,15.33
2018-05-15T10:17:20.408Z,14.00
2018-05-15T10:19:59.657Z,12.33
2018-05-15T10:22:31.217Z,14.00
2018-05-15T10:25:03.486Z,11.50
2018-05-15T10:30:09.211Z,12.75
2018-05-15T10:32:40.582Z,13.00
2018-05-15T10:35:12.316Z,13.00
2018-05-15T10:37:43.661Z,14.00
2018-05-15T10:40:15.182Z,15.00
2018-05-15T10:42:50.878Z,16.00
2018-05-15T10:45:22.266Z,14.00
2018-05-15T10:47:55.109Z,14.67
2018-05-15T10:50:25.943Z,16.00
2018-05-15T10:52:57.311Z,15.00
2018-05-15T10:55:27.841Z,14.67
2018-05-15T10:57:59.276Z,15.67
2018-05-15T11:00:31.856Z,14.33
2018-05-15T11:03:05.866Z,15.33
2018-05-15T11:05:37.246Z,17.00
2018-05-15T11:08:07.842Z,13.00
2018-05-15T11:10:41.837Z,18.33
2018-05-15T11:13:14.184Z,16.33
2018-05-15T11:15:46.145Z,16.00
2018-05-15T11:18:27.282Z,17.67
2018-05-15T11:24:14.080Z,16.33
2018-05-15T11:26:46.418Z,17.33
2018-05-15T11:29:17.990Z,18.67
2018-05-15T11:31:50.965Z,17.00
2018-05-15T11:34:21.878Z,18.00
2018-05-15T11:36:54.116Z,18.00
2018-05-15T11:39:24.790Z,18.00
2018-05-15T11:41:57.171Z,18.33
2018-05-15T11:44:27.819Z,17.33
2018-05-15T11:46:59.558Z,16.33
2018-05-15T11:49:30.762Z,16.67
2018-05-15T11:52:01.531Z,19.33
2018-05-15T11:54:31.622Z,18.33
2018-05-15T11:57:02.122Z,17.67
2018-05-15T11:59:33.150Z,19.00
2018-05-15T12:02:04.552Z,18.00
2018-05-15T12:04:36.137Z,16.00
2018-05-15T12:07:06.600Z,15.67
2018-05-15T12:09:38.846Z,17.00
2018-05-15T12:12:11.474Z,15.00
2018-05-15T12:14:43.761Z,16.00
2018-05-15T12:17:14.346Z,15.00
2018-05-15T12:19:44.854Z,16.00
2018-05-15T12:22:16.252Z,17.00
2018-05-15T12:24:48.032Z,16.00
2018-05-15T12:27:20.290Z,18.33
2018-05-15T12:29:52.453Z,18.33
2018-05-15T12:32:22.921Z,16.33
2018-05-15T12:34:56.054Z,17.00
2018-05-15T12:37:27.094Z,18.67
2018-05-15T12:40:00.568Z,16.00
2018-05-15T12:42:32.007Z,17.00
2018-05-15T12:45:04.689Z,17.33
2018-05-15T12:47:35.224Z,17.00
2018-05-15T12:50:07.691Z,18.00
2018-05-15T12:52:39.748Z,17.67
2018-05-15T12:55:11.136Z,16.00
2018-05-15T12:57:41.871Z,16.33
2018-05-15T13:00:16.151Z,16.33
2018-05-15T13:02:47.566Z,17.00
2018-05-15T13:05:20.449Z,17.67
2018-05-15T13:07:51.202Z,16.33
2018-05-15T13:10:24.854Z,16.67
2018-05-15T13:12:55.721Z,16.33
2018-05-15T13:15:27.154Z,14.00
2018-05-15T13:17:59.951Z,14.00
2018-05-15T13:20:30.433Z,15.00
2018-05-15T13:23:02.402Z,17.33
2018-05-15T13:25:33.396Z,17.00
2018-05-15T13:28:04.472Z,18.00
2018-05-15T13:30:35.003Z,16.00
2018-05-15T13:33:06.763Z,17.33
2018-05-15T13:35:37.274Z,17.33
2018-05-15T13:38:07.721Z,15.67
2018-05-15T13:40:39.987Z,17.00
2018-05-15T13:43:11.445Z,17.33
2018-05-15T13:45:44.400Z,17.00
2018-05-15T13:48:15.872Z,17.00
2018-05-15T13:50:47.257Z,16.67
2018-05-15T13:53:18.660Z,15.00
2018-05-15T13:55:50.068Z,13.33
2018-05-15T13:58:21.839Z,11.00
2018-05-15T14:00:53.186Z,14.33
2018-05-15T14:03:24.646Z,13.00
2018-05-15T14:05:56.033Z,12.33
2018-05-15T14:08:27.487Z,14.33
2018-05-15T14:11:00.482Z,17.00
2018-05-15T14:13:32.963Z,15.67
2018-05-15T14:16:03.499Z,16.33
2018-05-15T14:18:35.065Z,18.33
2018-05-15T14:21:07.424Z,19.00
2018-05-15T14:23:37.746Z,18.00
2018-05-15T14:26:09.107Z,17.00
2018-05-15T14:28:40.487Z,18.00
2018-05-15T14:31:11.000Z,18.00
2018-05-15T14:33:43.338Z,17.33
2018-05-15T14:36:13.854Z,17.33
2018-05-15T14:38:46.582Z,18.33
2018-05-15T14:41:20.734Z,19.00
2018-05-15T14:43:52.918Z,20.00
2018-05-15T14:46:23.418Z,19.67
2018-05-15T14:48:53.803Z,17.00
2018-05-15T14:51:30.459Z,18.00
2018-05-15T14:54:06.738Z,17.33
2018-05-15T14:56:39.104Z,17.00
2018-05-15T14:59:10.886Z,17.67
2018-05-15T15:01:43.454Z,16.33
2018-05-15T15:04:14.953Z,15.33
2018-05-15T15:06:46.312Z,16.00
2018-05-15T15:09:18.606Z,18.00
2018-05-15T15:11:49.958Z,16.67
2018-05-15T15:14:21.504Z,13.67
2018-05-15T15:16:53.274Z,14.67
2018-05-15T15:19:24.657Z,13.33
2018-05-15T15:21:56.010Z,12.00
2018-05-15T15:24:28.660Z,13.67
2018-05-15T15:27:00.042Z,14.33
2018-05-15T15:29:31.374Z,14.33
2018-05-15T15:32:03.990Z,15.00
2018-05-15T15:34:34.478Z,15.67
2018-05-15T15:37:05.980Z,14.67
2018-05-15T15:39:38.927Z,16.67
2018-05-15T15:42:10.282Z,15.67
2018-05-15T15:44:43.002Z,17.00
2018-05-15T15:47:15.273Z,17.00
2018-05-15T15:49:47.606Z,17.00
2018-05-15T15:52:18.399Z,16.67
2018-05-15T15:54:48.934Z,16.00
2018-05-15T15:57:20.684Z,16.33
2018-05-15T15:59:53.249Z,16.67
2018-05-15T16:02:23.718Z,16.00
2018-05-15T16:04:54.338Z,16.00
2018-05-15T16:07:25.547Z,16.00
2018-05-15T16:09:57.991Z,17.67
2018-05-15T16:12:28.961Z,17.67
2018-05-15T16:14:59.607Z,19.00
2018-05-15T16:17:31.936Z,15.67
2018-05-15T16:20:02.597Z,19.33
2018-05-15T16:22:33.178Z,20.00
2018-05-15T16:25:05.776Z,18.00
2018-05-15T16:27:36.235Z,21.00
2018-05-15T16:30:07.148Z,17.00
2018-05-15T16:32:37.978Z,18.00
2018-05-15T16:35:08.454Z,19.00
2018-05-15T16:37:39.119Z,18.00
2018-05-15T16:40:09.804Z,20.00
2018-05-15T16:42:40.169Z,15.67
2018-05-15T16:45:14.398Z,20.00
2018-05-15T16:47:46.701Z,18.00
2018-05-15T16:50:17.767Z,16.33
2018-05-15T16:52:50.052Z,16.33
2018-05-15T16:55:22.401Z,19.00
2018-05-15T16:57:54.266Z,18.00
2018-05-15T17:00:25.701Z,16.00
2018-05-15T17:02:56.292Z,17.33
2018-05-15T17:05:27.650Z,15.33
2018-05-15T17:07:58.212Z,18.00
2018-05-15T17:10:29.992Z,17.00
2018-05-15T17:13:00.521Z,16.00
2018-05-15T17:15:31.915Z,15.33
2018-05-15T17:18:02.691Z,17.00
2018-05-15T17:20:34.922Z,15.67
2018-05-15T17:23:07.177Z,15.67
2018-05-15T17:25:37.630Z,19.00
2018-05-15T17:28:08.982Z,16.00
2018-05-15T17:30:39.894Z,18.67
2018-05-15T17:33:11.341Z,18.67
2018-05-15T17:35:41.835Z,17.00
2018-05-15T17:38:12.507Z,17.67
2018-05-15T17:40:42.940Z,20.00
2018-05-15T17:43:13.679Z,16.67
2018-05-15T17:45:44.249Z,17.00
2018-05-15T17:48:14.738Z,14.33
2018-05-15T17:50:45.704Z,19.00
2018-05-15T17:53:16.191Z,18.00
2018-05-15T17:55:46.659Z,18.67
2018-05-15T17:58:17.454Z,18.00
2018-05-15T18:00:48.630Z,18.67
2018-05-15T18:03:21.811Z,8.50
2018-05-15T18:05:55.713Z,9.14
2018-05-15T18:08:28.260Z,9.00
2018-05-15T18:11:02.499Z,9.29
2018-05-15T18:13:36.475Z,9.57
2018-05-15T18:16:08.208Z,11.67
2018-05-15T18:18:39.866Z,9.00
2018-05-15T18:21:11.358Z,11.00
2018-05-15T18:23:43.435Z,10.33
2018-05-15T18:26:16.673Z,7.50
2018-05-15T18:28:49.906Z,6.17
2018-05-15T18:31:24.664Z,10.00
2018-05-15T18:33:56.988Z,7.00
2018-05-15T18:36:31.063Z,8.00
2018-05-15T18:39:05.082Z,7.50
2018-05-15T18:41:37.516Z,7.60
2018-05-15T18:44:09.930Z,8.80
2018-05-15T18:46:42.966Z,8.83
2018-05-15T18:49:15.224Z,10.00
2018-05-15T18:51:47.486Z,9.80
2018-05-15T18:54:19.707Z,10.80
2018-05-15T18:56:51.994Z,9.80
2018-05-15T18:59:26.241Z,12.14
2018-05-15T19:01:58.934Z,10.50
2018-05-15T19:04:31.090Z,12.00
2018-05-15T19:07:05.095Z,10.57
2018-05-15T19:09:36.518Z,10.67
2018-05-15T19:12:10.802Z,8.57
2018-05-15T19:14:43.053Z,10.00
2018-05-15T19:17:14.404Z,12.00
2018-05-15T19:19:46.786Z,12.00
2018-05-15T19:22:18.378Z,10.00
2018-05-15T19:24:53.914Z,10.86
2018-05-15T19:27:25.844Z,9.33
2018-05-15T19:29:58.325Z,10.00
2018-05-15T19:32:35.069Z,10.00
2018-05-15T19:35:08.126Z,12.00
2018-05-15T19:37:40.738Z,12.33
2018-05-15T19:40:13.172Z,13.00
2018-05-15T19:42:45.421Z,10.00
2018-05-15T19:45:17.275Z,12.00
2018-05-15T19:47:48.645Z,10.00
2018-05-15T19:50:20.010Z,12.33
2018-05-15T19:52:52.611Z,11.50
2018-05-15T19:55:24.808Z,10.00
2018-05-15T19:57:57.137Z,10.00
2018-05-15T20:00:29.501Z,10.00
2018-05-15T20:03:01.789Z,10.80
2018-05-15T20:05:34.397Z,7.40
2018-05-15T20:08:06.732Z,10.40
2018-05-15T20:10:38.203Z,11.33
2018-05-15T20:13:10.829Z,9.60
2018-05-15T20:15:43.128Z,13.00
2018-05-15T20:18:14.541Z,12.00
2018-05-15T20:20:46.780Z,10.00
2018-05-15T20:23:18.210Z,9.67
2018-05-15T20:25:50.529Z,10.00
2018-05-15T20:28:24.456Z,9.14
2018-05-15T20:30:56.610Z,9.40
2018-05-15T20:33:29.394Z,12.00
2018-05-15T20:36:02.598Z,7.67
2018-05-15T20:38:36.486Z,7.14
2018-05-15T20:41:07.963Z,10.00
2018-05-15T20:43:40.173Z,9.00
2018-05-15T20:46:12.932Z,9.00
2018-05-15T20:48:45.173Z,12.00
2018-05-15T20:51:16.546Z,12.67
2018-05-15T20:53:54.117Z,13.00
2018-05-15T20:56:25.559Z,14.33
2018-05-15T20:58:57.312Z,12.33
2018-05-15T21:01:28.727Z,12.00
2018-05-15T21:04:00.175Z,13.00
2018-05-15T21:06:32.786Z,12.00
2018-05-15T21:09:04.765Z,12.00
2018-05-15T21:11:40.310Z,15.00
2018-05-15T21:14:11.804Z,13.33
2018-05-15T21:16:43.462Z,17.67
2018-05-15T21:19:14.901Z,16.00
2018-05-15T21:21:46.198Z,13.33
2018-05-15T21:24:19.469Z,15.00
2018-05-15T21:26:50.881Z,15.33
2018-05-15T21:29:22.189Z,12.67
2018-05-15T21:31:53.970Z,14.33
2018-05-15T21:34:25.410Z,18.00
2018-05-15T21:36:57.626Z,14.00
2018-05-15T21:39:28.382Z,17.00
2018-05-15T21:41:59.664Z,14.00
2018-05-15T21:44:31.276Z,15.67
2018-05-15T21:47:03.678Z,15.67
2018-05-15T21:49:36.799Z,14.50
2018-05-15T21:52:08.344Z,12.67
2018-05-15T21:54:40.578Z,14.50
2018-05-15T21:57:12.903Z,14.75
2018-05-15T21:59:44.236Z,14.33
2018-05-15T22:02:15.598Z,14.33
2018-05-15T22:04:46.999Z,14.33
2018-05-15T22:07:18.426Z,14.00
2018-05-15T22:09:49.784Z,15.00
2018-05-15T22:12:33.217Z,14.50
2018-05-15T22:15:21.875Z,12.50
2018-05-15T22:18:09.873Z,10.33
2018-05-15T22:20:57.581Z,11.67
2018-05-15T22:23:34.401Z,12.25
2018-05-15T22:26:05.226Z,8.33
2018-05-15T22:28:37.409Z,12.00
2018-05-15T22:31:08.786Z,13.33
2018-05-15T22:33:40.405Z,12.00
2018-05-15T22:36:12.158Z,12.00
2018-05-15T22:38:44.326Z,12.75
2018-05-15T22:41:15.740Z,12.00
2018-05-15T22:43:47.005Z,12.00
2018-05-15T22:46:18.378Z,12.33
2018-05-15T22:48:50.104Z,12.33
2018-05-15T22:51:21.472Z,10.00
2018-05-15T22:53:52.862Z,13.00
2018-05-15T22:56:25.446Z,11.25
2018-05-15T22:58:57.656Z,12.33
2018-05-15T23:01:29.006Z,11.67
2018-05-15T23:04:02.060Z,11.75
2018-05-15T23:06:34.121Z,13.00
2018-05-15T23:09:06.903Z,10.00
2018-05-15T23:11:38.843Z,13.00
2018-05-15T23:14:11.211Z,10.00
2018-05-15T23:16:43.629Z,13.00
2018-05-15T23:19:17.577Z,14.00
2018-05-15T23:21:49.031Z,13.00
2018-05-15T23:24:20.595Z,10.67
2018-05-15T23:26:51.989Z,10.00
2018-05-15T23:29:23.725Z,10.67
2018-05-15T23:31:55.326Z,11.67
2018-05-15T23:34:27.978Z,10.00
2018-05-15T23:37:01.835Z,10.00
2018-05-15T23:39:33.320Z,11.33
2018-05-15T23:42:05.750Z,10.80
2018-05-15T23:44:37.210Z,10.33
2018-05-15T23:47:09.663Z,12.60
2018-05-15T23:49:42.155Z,10.00
2018-05-15T23:52:13.565Z,8.67
2018-05-15T23:54:45.242Z,9.33
2018-05-15T23:57:17.577Z,11.60
2018-05-15T23:59:50.658Z,9.80
